EIN52A EIDW-LFPG
Flight info
| Callsign | EIN52A |
|---|---|
| Flight time | 1h 14m |
| Altitude | 37000 |
| Route | ENDEQ1E ENDEQ Q36 EPOXI L15 KEPAD L151 MID Y803 SFD/N0413F250 UM605 BIBAX |
| Aircraft | A21N/M-SDE2E3FGHIRWXY/LB1 |
Departure
| Time | 2026-04-30 07:52 |
|---|---|
| Airport | Dublin Airport (EIDW) |
Arrival
| Time | 2026-04-30 09:06 |
|---|---|
| Airport | Charles de Gaulle International Airport (LFPG) |
| Time | Latitude | Longitude | Altitude | Speed | Heading |
|---|---|---|---|---|---|
| 2026-04-30 07:16 | 53.42259 | -6.24356 | 220 ft | 0 kts | 330° |
| 2026-04-30 07:39 | 53.42245 | -6.24343 | 221 ft | 4 kts | 330° |
| 2026-04-30 07:39 | 53.42222 | -6.24321 | 217 ft | 4 kts | 328° |
| 2026-04-30 07:40 | 53.42199 | -6.24296 | 221 ft | 4 kts | 324° |
| 2026-04-30 07:40 | 53.42179 | -6.24267 | 216 ft | 4 kts | 305° |
| 2026-04-30 07:40 | 53.42173 | -6.24236 | 216 ft | 3 kts | 240° |
| 2026-04-30 07:40 | 53.42174 | -6.24232 | 216 ft | 1 kts | 233° |
| 2026-04-30 07:43 | 53.42174 | -6.24233 | 216 ft | 2 kts | 233° |
| 2026-04-30 07:44 | 53.42156 | -6.24279 | 216 ft | 5 kts | 246° |
| 2026-04-30 07:44 | 53.42157 | -6.24323 | 216 ft | 5 kts | 272° |
| 2026-04-30 07:44 | 53.42161 | -6.24409 | 223 ft | 10 kts | 276° |
| 2026-04-30 07:44 | 53.42170 | -6.24558 | 216 ft | 16 kts | 276° |
| 2026-04-30 07:45 | 53.42183 | -6.24763 | 216 ft | 19 kts | 276° |
| 2026-04-30 07:45 | 53.42195 | -6.25000 | 217 ft | 22 kts | 274° |
| 2026-04-30 07:45 | 53.42211 | -6.25266 | 219 ft | 24 kts | 275° |
| 2026-04-30 07:45 | 53.42226 | -6.25563 | 219 ft | 27 kts | 275° |
| 2026-04-30 07:46 | 53.42243 | -6.25889 | 216 ft | 29 kts | 275° |
| 2026-04-30 07:46 | 53.42263 | -6.26228 | 216 ft | 26 kts | 275° |
| 2026-04-30 07:46 | 53.42280 | -6.26536 | 223 ft | 20 kts | 275° |
| 2026-04-30 07:46 | 53.42290 | -6.26725 | 216 ft | 18 kts | 275° |
| 2026-04-30 07:47 | 53.42303 | -6.26954 | 216 ft | 21 kts | 275° |
| 2026-04-30 07:47 | 53.42317 | -6.27209 | 216 ft | 24 kts | 275° |
| 2026-04-30 07:47 | 53.42333 | -6.27497 | 216 ft | 26 kts | 275° |
| 2026-04-30 07:47 | 53.42349 | -6.27813 | 223 ft | 28 kts | 275° |
| 2026-04-30 07:48 | 53.42364 | -6.28058 | 219 ft | 15 kts | 276° |
| 2026-04-30 07:48 | 53.42375 | -6.28253 | 216 ft | 18 kts | 276° |
| 2026-04-30 07:48 | 53.42387 | -6.28481 | 216 ft | 21 kts | 274° |
| 2026-04-30 07:48 | 53.42401 | -6.28742 | 216 ft | 24 kts | 272° |
| 2026-04-30 07:49 | 53.42398 | -6.29022 | 217 ft | 16 kts | 231° |
| 2026-04-30 07:49 | 53.42385 | -6.29042 | 216 ft | 6 kts | 222° |
| 2026-04-30 07:49 | 53.42345 | -6.29073 | 216 ft | 0 kts | 164° |
| 2026-04-30 07:50 | 53.42345 | -6.29072 | 216 ft | 1 kts | 164° |
| 2026-04-30 07:50 | 53.42320 | -6.29072 | 216 ft | 7 kts | 182° |
| 2026-04-30 07:50 | 53.42258 | -6.29051 | 215 ft | 12 kts | 140° |
| 2026-04-30 07:50 | 53.42240 | -6.28984 | 215 ft | 0 kts | 94° |
| 2026-04-30 07:51 | 53.42239 | -6.28948 | 217 ft | 15 kts | 94° |
| 2026-04-30 07:51 | 53.42209 | -6.28340 | 221 ft | 103 kts | 96° |
| 2026-04-30 07:51 | 53.42121 | -6.26642 | 247 ft | 185 kts | 95° |
| 2026-04-30 07:52 | 53.41965 | -6.24488 | 1555 ft | 182 kts | 97° |
| 2026-04-30 07:52 | 53.41842 | -6.22318 | 2868 ft | 193 kts | 99° |
| 2026-04-30 07:52 | 53.41723 | -6.19981 | 3801 ft | 212 kts | 100° |
| 2026-04-30 07:52 | 53.41579 | -6.17363 | 4737 ft | 239 kts | 100° |
| 2026-04-30 07:53 | 53.41422 | -6.14503 | 5938 ft | 251 kts | 99° |
| 2026-04-30 07:53 | 53.41260 | -6.11558 | 7250 ft | 257 kts | 99° |
| 2026-04-30 07:53 | 53.41094 | -6.08565 | 8630 ft | 260 kts | 99° |
| 2026-04-30 07:53 | 53.40925 | -6.05536 | 10072 ft | 263 kts | 99° |
| 2026-04-30 07:54 | 53.40826 | -6.02370 | 11072 ft | 287 kts | 91° |
| 2026-04-30 07:54 | 53.41070 | -5.98860 | 11788 ft | 313 kts | 87° |
| 2026-04-30 07:54 | 53.41380 | -5.95190 | 12859 ft | 323 kts | 88° |
| 2026-04-30 07:54 | 53.41687 | -5.91438 | 13890 ft | 326 kts | 88° |
| 2026-04-30 07:55 | 53.41887 | -5.88872 | 14372 ft | 330 kts | 89° |
| 2026-04-30 07:55 | 53.42179 | -5.85048 | 14805 ft | 334 kts | 89° |
| 2026-04-30 07:55 | 53.42472 | -5.81162 | 15038 ft | 335 kts | 89° |
| 2026-04-30 07:55 | 53.42747 | -5.77280 | 15272 ft | 335 kts | 90° |
| 2026-04-30 07:56 | 53.43001 | -5.73385 | 16083 ft | 341 kts | 90° |
| 2026-04-30 07:56 | 53.43261 | -5.69379 | 17078 ft | 348 kts | 90° |
| 2026-04-30 07:56 | 53.43530 | -5.65302 | 18108 ft | 355 kts | 90° |
| 2026-04-30 07:56 | 53.43806 | -5.61160 | 19030 ft | 362 kts | 90° |
| 2026-04-30 07:57 | 53.44089 | -5.56886 | 19923 ft | 367 kts | 90° |
| 2026-04-30 07:57 | 53.44368 | -5.52637 | 20795 ft | 373 kts | 89° |
| 2026-04-30 07:57 | 53.44518 | -5.48271 | 21633 ft | 376 kts | 96° |
| 2026-04-30 07:57 | 53.44430 | -5.43797 | 22093 ft | 392 kts | 97° |
| 2026-04-30 07:58 | 53.44303 | -5.39121 | 22414 ft | 411 kts | 97° |
| 2026-04-30 07:58 | 53.44169 | -5.34180 | 22770 ft | 426 kts | 97° |
| 2026-04-30 07:58 | 53.44041 | -5.29229 | 23395 ft | 433 kts | 96° |
| 2026-04-30 07:58 | 53.43911 | -5.24150 | 24066 ft | 438 kts | 96° |
| 2026-04-30 07:59 | 53.43774 | -5.19013 | 24686 ft | 442 kts | 96° |
| 2026-04-30 07:59 | 53.43637 | -5.13847 | 25273 ft | 445 kts | 97° |
| 2026-04-30 07:59 | 53.43479 | -5.08647 | 25887 ft | 446 kts | 97° |
| 2026-04-30 08:00 | 53.43140 | -4.98256 | 27194 ft | 447 kts | 96° |
| 2026-04-30 08:00 | 53.42972 | -4.93070 | 27870 ft | 446 kts | 96° |
| 2026-04-30 08:00 | 53.42805 | -4.87865 | 28552 ft | 446 kts | 96° |
| 2026-04-30 08:00 | 53.42636 | -4.82686 | 29245 ft | 445 kts | 96° |
| 2026-04-30 08:01 | 53.42464 | -4.77522 | 30004 ft | 442 kts | 95° |
| 2026-04-30 08:01 | 53.42291 | -4.72376 | 30585 ft | 443 kts | 95° |
| 2026-04-30 08:01 | 53.42113 | -4.67217 | 31096 ft | 443 kts | 96° |
| 2026-04-30 08:01 | 53.41938 | -4.62091 | 31724 ft | 440 kts | 96° |
| 2026-04-30 08:02 | 53.41576 | -4.51901 | 33006 ft | 435 kts | 96° |
| 2026-04-30 08:02 | 53.41393 | -4.46871 | 33607 ft | 433 kts | 96° |
| 2026-04-30 08:03 | 53.41022 | -4.36822 | 34667 ft | 430 kts | 96° |
| 2026-04-30 08:03 | 53.40659 | -4.26811 | 35536 ft | 430 kts | 96° |
| 2026-04-30 08:03 | 53.40467 | -4.21810 | 35963 ft | 429 kts | 96° |
| 2026-04-30 08:04 | 53.40277 | -4.16828 | 36377 ft | 429 kts | 96° |
| 2026-04-30 08:04 | 53.40089 | -4.11831 | 36806 ft | 429 kts | 96° |
| 2026-04-30 08:04 | 53.39898 | -4.06847 | 37178 ft | 430 kts | 97° |
| 2026-04-30 08:05 | 53.39501 | -3.96854 | 37283 ft | 429 kts | 97° |
| 2026-04-30 08:05 | 53.39096 | -3.86856 | 37276 ft | 429 kts | 97° |
| 2026-04-30 08:06 | 53.38683 | -3.76883 | 37268 ft | 429 kts | 97° |
| 2026-04-30 08:06 | 53.38208 | -3.66926 | 37276 ft | 428 kts | 101° |
| 2026-04-30 08:07 | 53.36432 | -3.57544 | 37273 ft | 424 kts | 115° |
| 2026-04-30 08:07 | 53.34047 | -3.48469 | 37293 ft | 426 kts | 118° |
| 2026-04-30 08:08 | 53.30680 | -3.40411 | 37304 ft | 422 kts | 133° |
| 2026-04-30 08:08 | 53.26766 | -3.33084 | 37307 ft | 422 kts | 133° |
| 2026-04-30 08:09 | 53.22868 | -3.25760 | 37314 ft | 422 kts | 133° |
| 2026-04-30 08:09 | 53.18969 | -3.18414 | 37322 ft | 421 kts | 133° |
| 2026-04-30 08:10 | 53.15095 | -3.11130 | 37317 ft | 420 kts | 133° |
| 2026-04-30 08:10 | 53.11216 | -3.03863 | 37311 ft | 417 kts | 133° |
| 2026-04-30 08:11 | 53.07404 | -2.96736 | 37321 ft | 410 kts | 133° |
| 2026-04-30 08:11 | 53.03605 | -2.89668 | 37317 ft | 410 kts | 133° |
| 2026-04-30 08:12 | 52.99797 | -2.82590 | 37313 ft | 410 kts | 133° |
| 2026-04-30 08:12 | 52.95994 | -2.75544 | 37300 ft | 410 kts | 133° |
| 2026-04-30 08:13 | 52.92175 | -2.68488 | 37290 ft | 411 kts | 133° |
| 2026-04-30 08:13 | 52.88357 | -2.61455 | 37289 ft | 411 kts | 133° |
| 2026-04-30 08:14 | 52.84530 | -2.54432 | 37287 ft | 411 kts | 133° |
| 2026-04-30 08:14 | 52.80591 | -2.47635 | 37277 ft | 409 kts | 140° |
| 2026-04-30 08:15 | 52.75915 | -2.42251 | 37292 ft | 409 kts | 146° |
| 2026-04-30 08:15 | 52.71162 | -2.37071 | 37301 ft | 410 kts | 146° |
| 2026-04-30 08:16 | 52.66412 | -2.31857 | 37301 ft | 411 kts | 146° |
| 2026-04-30 08:16 | 52.61649 | -2.26631 | 37299 ft | 411 kts | 146° |
| 2026-04-30 08:17 | 52.56894 | -2.21426 | 37301 ft | 411 kts | 146° |
| 2026-04-30 08:17 | 52.52126 | -2.16224 | 37302 ft | 411 kts | 146° |
| 2026-04-30 08:18 | 52.47368 | -2.11046 | 37298 ft | 413 kts | 146° |
| 2026-04-30 08:18 | 52.42551 | -2.05817 | 37291 ft | 414 kts | 146° |
| 2026-04-30 08:19 | 52.37762 | -2.00630 | 37290 ft | 414 kts | 146° |
| 2026-04-30 08:19 | 52.32949 | -1.95431 | 37282 ft | 414 kts | 146° |
| 2026-04-30 08:20 | 52.28105 | -1.90219 | 37282 ft | 414 kts | 146° |
| 2026-04-30 08:20 | 52.23317 | -1.85077 | 37302 ft | 415 kts | 146° |
| 2026-04-30 08:21 | 52.18494 | -1.79915 | 37301 ft | 414 kts | 146° |
| 2026-04-30 08:21 | 52.13642 | -1.74739 | 37310 ft | 414 kts | 146° |
| 2026-04-30 08:22 | 52.08845 | -1.69630 | 37310 ft | 415 kts | 146° |
| 2026-04-30 08:22 | 52.04028 | -1.64500 | 37308 ft | 414 kts | 146° |
| 2026-04-30 08:23 | 51.99191 | -1.59365 | 37271 ft | 415 kts | 146° |
| 2026-04-30 08:23 | 51.94351 | -1.54256 | 37263 ft | 415 kts | 147° |
| 2026-04-30 08:24 | 51.89518 | -1.49163 | 37265 ft | 415 kts | 147° |
| 2026-04-30 08:24 | 51.84672 | -1.44065 | 37253 ft | 415 kts | 146° |
| 2026-04-30 08:25 | 51.79827 | -1.38979 | 37270 ft | 416 kts | 147° |
| 2026-04-30 08:25 | 51.74958 | -1.33885 | 37260 ft | 416 kts | 147° |
| 2026-04-30 08:26 | 51.70096 | -1.28813 | 37259 ft | 416 kts | 147° |
| 2026-04-30 08:26 | 51.65230 | -1.23750 | 37259 ft | 416 kts | 147° |
| 2026-04-30 08:27 | 51.60365 | -1.18700 | 37262 ft | 416 kts | 147° |
| 2026-04-30 08:27 | 51.55499 | -1.13659 | 37264 ft | 416 kts | 147° |
| 2026-04-30 08:28 | 51.50621 | -1.08622 | 37259 ft | 417 kts | 147° |
| 2026-04-30 08:28 | 51.45738 | -1.03591 | 37257 ft | 416 kts | 147° |
| 2026-04-30 08:29 | 51.40866 | -0.98585 | 37256 ft | 416 kts | 147° |
| 2026-04-30 08:29 | 51.36832 | -0.94452 | 37243 ft | 416 kts | 147° |
| 2026-04-30 08:30 | 51.31888 | -0.89400 | 37256 ft | 417 kts | 147° |
| 2026-04-30 08:30 | 51.27030 | -0.84441 | 37259 ft | 417 kts | 147° |
| 2026-04-30 08:31 | 51.22139 | -0.79468 | 37263 ft | 417 kts | 147° |
| 2026-04-30 08:31 | 51.17242 | -0.74503 | 37259 ft | 417 kts | 147° |
| 2026-04-30 08:32 | 51.12340 | -0.69545 | 37259 ft | 417 kts | 147° |
| 2026-04-30 08:32 | 51.07477 | -0.64553 | 37253 ft | 417 kts | 143° |
| 2026-04-30 08:33 | 51.03529 | -0.57909 | 37245 ft | 417 kts | 123° |
| 2026-04-30 08:33 | 51.00491 | -0.50003 | 37242 ft | 417 kts | 122° |
| 2026-04-30 08:34 | 50.97466 | -0.42144 | 37241 ft | 417 kts | 122° |
| 2026-04-30 08:34 | 50.94406 | -0.34298 | 37234 ft | 417 kts | 122° |
| 2026-04-30 08:35 | 50.91359 | -0.26523 | 37229 ft | 417 kts | 123° |
| 2026-04-30 08:35 | 50.88271 | -0.18665 | 37228 ft | 417 kts | 123° |
| 2026-04-30 08:36 | 50.85198 | -0.10869 | 37234 ft | 418 kts | 123° |
| 2026-04-30 08:36 | 50.82110 | -0.03057 | 37236 ft | 419 kts | 123° |
| 2026-04-30 08:37 | 50.79014 | 0.04741 | 37251 ft | 419 kts | 122° |
| 2026-04-30 08:37 | 50.75771 | 0.12305 | 37245 ft | 418 kts | 130° |
| 2026-04-30 08:38 | 50.71384 | 0.18338 | 37257 ft | 419 kts | 141° |
| 2026-04-30 08:38 | 50.66823 | 0.24051 | 37248 ft | 419 kts | 141° |
| 2026-04-30 08:39 | 50.62297 | 0.29804 | 37257 ft | 417 kts | 140° |
| 2026-04-30 08:39 | 50.57791 | 0.35543 | 37243 ft | 417 kts | 140° |
| 2026-04-30 08:40 | 50.53270 | 0.41289 | 37248 ft | 418 kts | 140° |
| 2026-04-30 08:40 | 50.48745 | 0.47021 | 37228 ft | 418 kts | 140° |
| 2026-04-30 08:41 | 50.44207 | 0.52755 | 37234 ft | 419 kts | 140° |
| 2026-04-30 08:41 | 50.39664 | 0.58483 | 37180 ft | 417 kts | 140° |
| 2026-04-30 08:41 | 50.37411 | 0.61319 | 36765 ft | 414 kts | 140° |
| 2026-04-30 08:42 | 50.35167 | 0.64139 | 36184 ft | 413 kts | 140° |
| 2026-04-30 08:42 | 50.32913 | 0.66965 | 35570 ft | 414 kts | 140° |
| 2026-04-30 08:42 | 50.30681 | 0.69760 | 34967 ft | 413 kts | 140° |
| 2026-04-30 08:42 | 50.28447 | 0.72556 | 34371 ft | 412 kts | 140° |
| 2026-04-30 08:43 | 50.26187 | 0.75384 | 33705 ft | 412 kts | 140° |
| 2026-04-30 08:43 | 50.23951 | 0.78182 | 33017 ft | 412 kts | 140° |
| 2026-04-30 08:43 | 50.21725 | 0.80963 | 32387 ft | 413 kts | 140° |
| 2026-04-30 08:43 | 50.19458 | 0.83788 | 31722 ft | 413 kts | 140° |
| 2026-04-30 08:44 | 50.17236 | 0.86549 | 31103 ft | 414 kts | 140° |
| 2026-04-30 08:44 | 50.14980 | 0.89351 | 30489 ft | 415 kts | 140° |
| 2026-04-30 08:44 | 50.12730 | 0.92146 | 29807 ft | 415 kts | 140° |
| 2026-04-30 08:44 | 50.10462 | 0.94957 | 29113 ft | 418 kts | 140° |
| 2026-04-30 08:45 | 50.08174 | 0.97789 | 28425 ft | 420 kts | 140° |
| 2026-04-30 08:45 | 50.05819 | 1.00527 | 27742 ft | 424 kts | 144° |
| 2026-04-30 08:45 | 50.03239 | 1.02745 | 27089 ft | 427 kts | 151° |
| 2026-04-30 08:45 | 50.00561 | 1.04766 | 26463 ft | 427 kts | 152° |
| 2026-04-30 08:46 | 49.97890 | 1.06750 | 25839 ft | 425 kts | 152° |
| 2026-04-30 08:46 | 49.95224 | 1.08741 | 25233 ft | 421 kts | 152° |
| 2026-04-30 08:46 | 49.92602 | 1.10702 | 24639 ft | 418 kts | 151° |
| 2026-04-30 08:46 | 49.89981 | 1.12666 | 24054 ft | 416 kts | 151° |
| 2026-04-30 08:47 | 49.87391 | 1.14607 | 23418 ft | 413 kts | 151° |
| 2026-04-30 08:47 | 49.84814 | 1.16537 | 22745 ft | 409 kts | 152° |
| 2026-04-30 08:47 | 49.82262 | 1.18446 | 22078 ft | 406 kts | 152° |
| 2026-04-30 08:47 | 49.79735 | 1.20333 | 21434 ft | 402 kts | 152° |
| 2026-04-30 08:48 | 49.77220 | 1.22209 | 20799 ft | 398 kts | 152° |
| 2026-04-30 08:48 | 49.74739 | 1.24058 | 20185 ft | 395 kts | 152° |
| 2026-04-30 08:48 | 49.72276 | 1.25890 | 19579 ft | 391 kts | 152° |
| 2026-04-30 08:48 | 49.69870 | 1.27681 | 18994 ft | 388 kts | 152° |
| 2026-04-30 08:49 | 49.67417 | 1.29503 | 18395 ft | 384 kts | 152° |
| 2026-04-30 08:49 | 49.65010 | 1.31287 | 17733 ft | 381 kts | 152° |
| 2026-04-30 08:49 | 49.62636 | 1.33065 | 17087 ft | 379 kts | 151° |
| 2026-04-30 08:49 | 49.60480 | 1.35363 | 16415 ft | 376 kts | 140° |
| 2026-04-30 08:50 | 49.58494 | 1.37970 | 15814 ft | 375 kts | 138° |
| 2026-04-30 08:50 | 49.56523 | 1.40582 | 15199 ft | 370 kts | 139° |
| 2026-04-30 08:50 | 49.54563 | 1.43150 | 14601 ft | 366 kts | 139° |
| 2026-04-30 08:50 | 49.52625 | 1.45666 | 14017 ft | 365 kts | 139° |
| 2026-04-30 08:51 | 49.50667 | 1.48196 | 13371 ft | 364 kts | 139° |
| 2026-04-30 08:51 | 49.48738 | 1.50678 | 12730 ft | 361 kts | 139° |
| 2026-04-30 08:51 | 49.46831 | 1.53129 | 12108 ft | 354 kts | 139° |
| 2026-04-30 08:51 | 49.44958 | 1.55535 | 11491 ft | 348 kts | 139° |
| 2026-04-30 08:52 | 49.43113 | 1.57901 | 10883 ft | 342 kts | 139° |
| 2026-04-30 08:52 | 49.41322 | 1.60198 | 10287 ft | 337 kts | 139° |
| 2026-04-30 08:52 | 49.39557 | 1.62457 | 9644 ft | 324 kts | 139° |
| 2026-04-30 08:52 | 49.37868 | 1.64617 | 9181 ft | 306 kts | 139° |
| 2026-04-30 08:53 | 49.36282 | 1.66643 | 8794 ft | 288 kts | 139° |
| 2026-04-30 08:53 | 49.34782 | 1.68559 | 8414 ft | 273 kts | 139° |
| 2026-04-30 08:53 | 49.33349 | 1.70388 | 8048 ft | 265 kts | 139° |
| 2026-04-30 08:53 | 49.31934 | 1.72190 | 7704 ft | 261 kts | 139° |
| 2026-04-30 08:54 | 49.30544 | 1.73961 | 7384 ft | 262 kts | 139° |
| 2026-04-30 08:54 | 49.29114 | 1.75675 | 7077 ft | 262 kts | 146° |
| 2026-04-30 08:54 | 49.27488 | 1.76924 | 6825 ft | 263 kts | 154° |
| 2026-04-30 08:54 | 49.25811 | 1.78038 | 6577 ft | 262 kts | 154° |
| 2026-04-30 08:55 | 49.24143 | 1.79166 | 6309 ft | 261 kts | 152° |
| 2026-04-30 08:55 | 49.22512 | 1.80353 | 6059 ft | 260 kts | 152° |
| 2026-04-30 08:55 | 49.20872 | 1.81558 | 5788 ft | 259 kts | 152° |
| 2026-04-30 08:55 | 49.19249 | 1.82748 | 5557 ft | 258 kts | 152° |
| 2026-04-30 08:56 | 49.17632 | 1.83930 | 5485 ft | 257 kts | 152° |
| 2026-04-30 08:56 | 49.16024 | 1.85106 | 5451 ft | 257 kts | 152° |
| 2026-04-30 08:56 | 49.14404 | 1.86288 | 5442 ft | 257 kts | 152° |
| 2026-04-30 08:56 | 49.12790 | 1.87459 | 5438 ft | 256 kts | 152° |
| 2026-04-30 08:57 | 49.11187 | 1.88622 | 5290 ft | 254 kts | 152° |
| 2026-04-30 08:57 | 49.09594 | 1.89777 | 5076 ft | 253 kts | 152° |
| 2026-04-30 08:57 | 49.08114 | 1.91198 | 4812 ft | 249 kts | 134° |
| 2026-04-30 08:57 | 49.07062 | 1.93262 | 4564 ft | 246 kts | 123° |
| 2026-04-30 08:58 | 49.06138 | 1.95452 | 4318 ft | 244 kts | 122° |
| 2026-04-30 08:58 | 49.05254 | 1.97611 | 4062 ft | 242 kts | 122° |
| 2026-04-30 08:58 | 49.04348 | 1.99808 | 3839 ft | 241 kts | 121° |
| 2026-04-30 08:58 | 49.03458 | 2.01946 | 3568 ft | 238 kts | 122° |
| 2026-04-30 08:59 | 49.02555 | 2.04091 | 3314 ft | 237 kts | 121° |
| 2026-04-30 08:59 | 49.01676 | 2.06155 | 3082 ft | 236 kts | 121° |
| 2026-04-30 08:59 | 49.00982 | 2.08447 | 2970 ft | 235 kts | 104° |
| 2026-04-30 08:59 | 49.00713 | 2.10881 | 2990 ft | 236 kts | 99° |
| 2026-04-30 09:00 | 49.00493 | 2.13474 | 2998 ft | 236 kts | 99° |
| 2026-04-30 09:00 | 49.00315 | 2.15874 | 3011 ft | 236 kts | 96° |
| 2026-04-30 09:00 | 49.00281 | 2.18419 | 2992 ft | 236 kts | 91° |
| 2026-04-30 09:00 | 49.00429 | 2.20872 | 2996 ft | 238 kts | 88° |
| 2026-04-30 09:01 | 49.00556 | 2.23406 | 3026 ft | 239 kts | 87° |
| 2026-04-30 09:01 | 49.00689 | 2.25881 | 3023 ft | 238 kts | 88° |
| 2026-04-30 09:01 | 49.00824 | 2.28417 | 2997 ft | 232 kts | 87° |
| 2026-04-30 09:01 | 49.00952 | 2.30763 | 2935 ft | 211 kts | 88° |
| 2026-04-30 09:02 | 49.01168 | 2.34804 | 2548 ft | 177 kts | 89° |
| 2026-04-30 09:02 | 49.01263 | 2.36529 | 2388 ft | 150 kts | 90° |
| 2026-04-30 09:02 | 49.01343 | 2.38039 | 2175 ft | 139 kts | 89° |
| 2026-04-30 09:03 | 49.01419 | 2.39435 | 2028 ft | 118 kts | 90° |
| 2026-04-30 09:03 | 49.01478 | 2.40551 | 1850 ft | 103 kts | 91° |
| 2026-04-30 09:03 | 49.01537 | 2.41651 | 1689 ft | 104 kts | 91° |
| 2026-04-30 09:03 | 49.01597 | 2.42750 | 1532 ft | 104 kts | 88° |
| 2026-04-30 09:04 | 49.01655 | 2.43851 | 1368 ft | 106 kts | 89° |
| 2026-04-30 09:04 | 49.01716 | 2.44979 | 1235 ft | 106 kts | 90° |
| 2026-04-30 09:04 | 49.01776 | 2.46097 | 1096 ft | 105 kts | 89° |
| 2026-04-30 09:04 | 49.01834 | 2.47189 | 988 ft | 103 kts | 88° |
| 2026-04-30 09:05 | 49.01887 | 2.48285 | 738 ft | 104 kts | 85° |
| 2026-04-30 09:05 | 49.01923 | 2.49019 | 646 ft | 105 kts | 84° |
| 2026-04-30 09:05 | 49.01994 | 2.50133 | 545 ft | 106 kts | 84° |
| 2026-04-30 09:05 | 49.02081 | 2.51600 | 367 ft | 99 kts | 85° |
| 2026-04-30 09:06 | 49.02115 | 2.52227 | 358 ft | 78 kts | 86° |
| 2026-04-30 09:06 | 49.02144 | 2.52846 | 361 ft | 42 kts | 84° |
| 2026-04-30 09:06 | 49.02157 | 2.53267 | 362 ft | 40 kts | 99° |
| 2026-04-30 09:06 | 49.02121 | 2.53510 | 359 ft | 15 kts | 105° |
| 2026-04-30 09:07 | 49.02091 | 2.53679 | 364 ft | 18 kts | 106° |
| 2026-04-30 09:07 | 49.02054 | 2.53878 | 359 ft | 21 kts | 105° |
| 2026-04-30 09:07 | 49.02015 | 2.54107 | 363 ft | 24 kts | 103° |
| 2026-04-30 09:07 | 49.01998 | 2.54218 | 362 ft | 1 kts | 102° |
| 2026-04-30 09:08 | 49.01993 | 2.54251 | 362 ft | 5 kts | 102° |
| 2026-04-30 09:08 | 49.01969 | 2.54308 | 367 ft | 9 kts | 143° |
| 2026-04-30 09:08 | 49.01900 | 2.54325 | 360 ft | 12 kts | 184° |
| 2026-04-30 09:08 | 49.01858 | 2.54328 | 360 ft | 0 kts | 175° |
| 2026-04-30 09:09 | 49.01856 | 2.54328 | 364 ft | 2 kts | 175° |
| 2026-04-30 09:09 | 49.01833 | 2.54332 | 362 ft | 5 kts | 173° |
| 2026-04-30 09:09 | 49.01802 | 2.54339 | 360 ft | 1 kts | 170° |
| 2026-04-30 09:09 | 49.01784 | 2.54389 | 360 ft | 12 kts | 106° |
| 2026-04-30 09:10 | 49.01744 | 2.54510 | 363 ft | 15 kts | 127° |
| 2026-04-30 09:10 | 49.01665 | 2.54636 | 360 ft | 18 kts | 145° |
| 2026-04-30 09:10 | 49.01547 | 2.54724 | 360 ft | 21 kts | 162° |
| 2026-04-30 09:10 | 49.01475 | 2.54744 | 360 ft | 1 kts | 169° |
| 2026-04-30 09:11 | 49.01449 | 2.54749 | 363 ft | 6 kts | 179° |
| 2026-04-30 09:11 | 49.01394 | 2.54741 | 366 ft | 11 kts | 188° |
| 2026-04-30 09:11 | 49.01306 | 2.54710 | 362 ft | 15 kts | 198° |
| 2026-04-30 09:11 | 49.01221 | 2.54607 | 360 ft | 18 kts | 245° |
| 2026-04-30 09:12 | 49.01207 | 2.54410 | 358 ft | 19 kts | 289° |
| 2026-04-30 09:12 | 49.01316 | 2.54322 | 356 ft | 21 kts | 24° |
| 2026-04-30 09:12 | 49.01378 | 2.54364 | 359 ft | 9 kts | 22° |
| 2026-04-30 09:12 | 49.01455 | 2.54384 | 359 ft | 12 kts | 357° |
| 2026-04-30 09:13 | 49.01461 | 2.54383 | 359 ft | 0 kts | 356° |
| 2026-04-30 09:13 | 49.01464 | 2.54384 | 359 ft | 2 kts | 6° |
| 2026-04-30 09:13 | 49.01477 | 2.54433 | 359 ft | 4 kts | 98° |
| 2026-04-30 09:14 | 49.01475 | 2.54451 | 359 ft | 0 kts | 96° |
| 2026-04-30 09:14 | 49.01474 | 2.54471 | 359 ft | 2 kts | 96° |
| 2026-04-30 09:14 | 49.01474 | 2.54468 | 359 ft | 0 kts | 96° |
| 2026-04-30 09:14 | 49.01474 | 2.54470 | 359 ft | 0 kts | 96° |